Time;durP1;ratioP1;P1;durP2;ratioP2;P2;SDS_P1;SDS_P2;PMS_P1;PMS_P2;Temp;Humidity;BMP_temperature;BMP_pressure;BME280_temperature;BME280_humidity;BME280_pressure;Samples;Min_cycle;Max_cycle;Signal;HPM_P1;HPM_P2
2021/07/17 00:00:30;;;;;;;9.85;7.10;;;;;;;16.15;100.00;95827.25;5046742;28;20045;-84
2021/07/17 00:03:13;;;;;;;9.23;7.30;;;;;;;16.14;100.00;95831.78;5036438;28;20523;-84
2021/07/17 00:05:39;;;;;;;9.48;6.55;;;;;;;16.08;100.00;95817.06;5046952;28;20057;-83
2021/07/17 00:08:05;;;;;;;8.95;7.25;;;;;;;16.11;100.00;95829.72;5039930;28;20037;-84
2021/07/17 00:10:33;;;;;;;9.57;7.03;;;;;;;16.15;100.00;95837.88;5052399;28;20099;-83
2021/07/17 00:12:59;;;;;;;9.63;7.03;;;;;;;16.10;100.00;95815.69;5037849;28;20041;-84
2021/07/17 00:15:25;;;;;;;11.35;7.53;;;;;;;16.15;100.00;95821.94;5030849;28;20044;-84
2021/07/17 00:17:51;;;;;;;10.63;7.30;;;;;;;16.13;100.00;95821.47;5033218;28;20483;-84
2021/07/17 00:20:16;;;;;;;11.60;7.53;;;;;;;15.96;100.00;95817.56;5046897;28;20689;-84
2021/07/17 00:22:42;;;;;;;10.52;7.60;;;;;;;16.07;100.00;95821.56;5044178;28;20041;-84
2021/07/17 00:25:20;;;;;;;12.25;7.30;;;;;;;16.11;100.00;95819.88;5038517;28;20038;-84
2021/07/17 00:27:46;;;;;;;8.95;7.28;;;;;;;16.11;100.00;95817.22;5029962;28;20038;-84
2021/07/17 00:30:13;;;;;;;9.32;7.38;;;;;;;16.11;100.00;95816.47;5035875;28;20049;-83
2021/07/17 00:32:39;;;;;;;8.93;6.88;;;;;;;16.05;100.00;95815.78;5041232;28;20044;-84
2021/07/17 00:35:06;;;;;;;8.90;7.47;;;;;;;16.01;100.00;95814.78;5038607;28;20041;-84
2021/07/17 00:37:32;;;;;;;10.50;7.13;;;;;;;16.07;100.00;95821.56;5029849;28;20602;-83
2021/07/17 00:39:58;;;;;;;10.07;8.07;;;;;;;16.08;100.00;95823.13;5055288;28;20045;-83
2021/07/17 00:42:23;;;;;;;9.75;8.75;;;;;;;16.09;100.00;95826.56;5034731;28;20096;-83
2021/07/17 00:44:49;;;;;;;10.25;7.90;;;;;;;16.11;100.00;95821.78;5038482;28;20048;-84
2021/07/17 00:47:15;;;;;;;10.57;7.72;;;;;;;16.32;100.00;95818.69;5030928;28;20037;-84
2021/07/17 00:49:41;;;;;;;8.52;7.30;;;;;;;16.27;100.00;95816.94;5044281;28;20110;-83
2021/07/17 00:52:07;;;;;;;9.90;7.68;;;;;;;16.23;100.00;95821.25;5045621;28;20447;-83
2021/07/17 00:54:33;;;;;;;10.38;8.07;;;;;;;16.17;100.00;95822.44;5028524;28;20092;-83
2021/07/17 00:57:02;;;;;;;10.45;7.85;;;;;;;16.14;100.00;95817.75;5046764;28;20037;-83
2021/07/17 00:59:32;;;;;;;11.80;8.45;;;;;;;16.14;100.00;95815.09;5048111;28;20055;-84
2021/07/17 01:02:00;;;;;;;9.75;8.32;;;;;;;16.08;100.00;95819.72;5053231;28;20086;-83
2021/07/17 01:04:27;;;;;;;11.65;8.25;;;;;;;16.04;100.00;95821.38;5035660;28;20047;-84
2021/07/17 01:06:53;;;;;;;11.18;8.13;;;;;;;16.00;100.00;95810.56;5046392;28;20090;-84
2021/07/17 01:09:19;;;;;;;10.80;8.73;;;;;;;16.07;100.00;95810.94;5052820;28;20482;-84
2021/07/17 01:11:44;;;;;;;10.43;8.05;;;;;;;16.04;100.00;95810.75;5037342;28;20498;-84
2021/07/17 01:14:11;;;;;;;10.82;8.20;;;;;;;16.02;100.00;95819.03;5044933;28;20049;-84
2021/07/17 01:16:38;;;;;;;10.75;8.05;;;;;;;16.19;100.00;95814.97;5038498;28;20044;-84
2021/07/17 01:19:04;;;;;;;9.75;7.82;;;;;;;16.33;100.00;95815.72;5038392;28;20045;-84
2021/07/17 01:21:30;;;;;;;10.32;7.88;;;;;;;16.50;100.00;95812.44;5056692;28;20041;-83
2021/07/17 01:23:55;;;;;;;11.23;7.55;;;;;;;16.48;100.00;95816.47;5051789;28;20391;-84
2021/07/17 01:26:21;;;;;;;10.93;7.90;;;;;;;16.29;100.00;95814.75;5051272;28;20459;-83
2021/07/17 01:28:47;;;;;;;11.02;7.90;;;;;;;16.32;100.00;95816.84;5052502;28;20064;-84
2021/07/17 01:31:13;;;;;;;11.55;8.07;;;;;;;16.25;100.00;95821.75;5044985;28;20039;-83
2021/07/17 01:33:39;;;;;;;10.50;7.72;;;;;;;16.29;100.00;95817.41;5052722;28;20037;-83
2021/07/17 01:36:05;;;;;;;10.90;7.95;;;;;;;16.21;100.00;95832.19;5041242;28;20040;-85
2021/07/17 01:38:30;;;;;;;10.18;7.78;;;;;;;16.35;100.00;95832.16;5036139;28;20037;-83
2021/07/17 01:40:56;;;;;;;8.52;7.53;;;;;;;16.34;100.00;95819.97;5045872;28;20052;-82
2021/07/17 01:43:22;;;;;;;10.10;7.47;;;;;;;16.35;100.00;95832.16;5071924;28;20048;-81
2021/07/17 01:45:47;;;;;;;12.13;7.68;;;;;;;16.28;100.00;95831.78;5064231;28;20449;-82
2021/07/17 01:48:14;;;;;;;8.57;7.43;;;;;;;16.30;100.00;95837.56;5044682;28;20530;-82
2021/07/17 01:50:41;;;;;;;10.68;7.75;;;;;;;16.22;100.00;95833.75;5032918;28;20112;-82
2021/07/17 01:53:09;;;;;;;10.68;7.38;;;;;;;16.18;100.00;95837.31;5032191;28;20151;-83
2021/07/17 01:55:35;;;;;;;11.20;7.53;;;;;;;16.18;100.00;95826.69;5041401;28;20090;-82
2021/07/17 01:58:01;;;;;;;8.65;6.95;;;;;;;16.15;100.00;95840.53;5054874;28;20041;-82
2021/07/17 02:00:28;;;;;;;8.52;6.88;;;;;;;16.16;100.00;95828.84;5038765;28;20041;-84
2021/07/17 02:02:53;;;;;;;11.57;7.45;;;;;;;16.14;100.00;95825.69;5048509;28;20041;-83
2021/07/17 02:05:20;;;;;;;10.20;7.82;;;;;;;16.16;100.00;95818.22;5040898;28;20461;-84
2021/07/17 02:07:46;;;;;;;10.50;7.38;;;;;;;16.21;100.00;95820.78;5045555;28;20128;-84
2021/07/17 02:10:20;;;;;;;8.68;6.78;;;;;;;16.08;100.00;95812.53;5043784;28;20046;-83
2021/07/17 02:13:04;;;;;;;9.85;7.20;;;;;;;16.19;100.00;95812.31;5035453;28;20037;-84
2021/07/17 02:15:33;;;;;;;8.60;6.95;;;;;;;16.11;100.00;95805.84;5032661;28;20042;-84
2021/07/17 02:17:59;;;;;;;8.63;6.82;;;;;;;16.07;100.00;95810.94;5050776;28;20068;-84
2021/07/17 02:20:25;;;;;;;9.93;7.72;;;;;;;16.10;100.00;95793.63;5055270;28;20046;-83
2021/07/17 02:22:51;;;;;;;11.98;7.15;;;;;;;16.07;100.00;95800.31;5046228;28;20042;-84
2021/07/17 02:25:18;;;;;;;8.60;7.53;;;;;;;16.01;100.00;95798.88;5033886;28;20041;-84
2021/07/17 02:27:44;;;;;;;10.23;7.63;;;;;;;15.96;100.00;95799.00;5031928;28;20041;-84
2021/07/17 02:30:11;;;;;;;9.38;7.80;;;;;;;15.99;100.00;95795.72;5044634;28;20038;-84
2021/07/17 02:32:36;;;;;;;11.82;7.85;;;;;;;15.94;100.00;95795.81;5033805;28;20029;-83
2021/07/17 02:35:04;;;;;;;8.98;7.57;;;;;;;15.93;100.00;95794.25;5038850;28;20111;-83
2021/07/17 02:37:29;;;;;;;10.05;8.43;;;;;;;15.83;100.00;95783.84;5049803;28;20037;-84
2021/07/17 02:39:55;;;;;;;9.38;7.65;;;;;;;16.00;100.00;95797.28;5039336;28;20041;-83
2021/07/17 02:42:20;;;;;;;10.70;7.85;;;;;;;15.98;100.00;95786.19;5041305;28;20461;-84
2021/07/17 02:44:46;;;;;;;9.85;7.95;;;;;;;15.80;100.00;95789.75;5034549;28;20545;-84
2021/07/17 02:47:12;;;;;;;9.20;7.65;;;;;;;15.76;100.00;95800.16;5031486;28;20045;-85
2021/07/17 02:49:37;;;;;;;9.77;8.10;;;;;;;15.75;100.00;95788.72;5034937;28;20042;-83
2021/07/17 02:52:04;;;;;;;11.93;8.20;;;;;;;15.82;100.00;95803.50;5036570;28;20130;-83
2021/07/17 02:54:29;;;;;;;13.93;8.30;;;;;;;15.73;100.00;95806.81;5033372;28;20037;-84
2021/07/17 02:56:55;;;;;;;13.00;8.82;;;;;;;15.56;100.00;95796.00;5047504;28;20094;-84
2021/07/17 02:59:20;;;;;;;12.70;8.80;;;;;;;15.59;100.00;95800.72;5030558;28;20041;-84
2021/07/17 03:01:46;;;;;;;11.63;8.90;;;;;;;15.57;100.00;95813.47;5031332;28;20053;-84
2021/07/17 03:04:11;;;;;;;11.80;8.82;;;;;;;15.40;100.00;95809.53;5034727;28;20751;-85
2021/07/17 03:06:37;;;;;;;11.07;9.23;;;;;;;15.48;100.00;95815.25;5037139;28;20045;-83
2021/07/17 03:09:04;;;;;;;10.60;8.95;;;;;;;15.47;100.00;95813.66;5048586;28;20037;-85
2021/07/17 03:11:33;;;;;;;12.13;9.85;;;;;;;15.54;100.00;95814.06;5035920;28;20044;-85
2021/07/17 03:14:01;;;;;;;18.95;9.80;;;;;;;15.67;100.00;95813.28;5049885;28;20045;-85
2021/07/17 03:16:29;;;;;;;10.15;8.48;;;;;;;15.58;100.00;95807.09;5050414;28;20059;-84
2021/07/17 03:18:54;;;;;;;11.43;9.23;;;;;;;15.38;100.00;95814.34;5040321;28;20051;-84
2021/07/17 03:21:20;;;;;;;13.25;8.93;;;;;;;15.44;100.00;95808.94;5061774;28;20045;-85
2021/07/17 03:23:45;;;;;;;11.02;8.60;;;;;;;15.44;100.00;95808.94;5040516;28;20482;-85
2021/07/17 03:26:11;;;;;;;12.63;9.57;;;;;;;15.48;100.00;95804.63;5031215;28;20427;-86
2021/07/17 03:28:37;;;;;;;12.10;9.93;;;;;;;15.36;100.00;95800.59;5040120;28;20041;-85
2021/07/17 03:31:03;;;;;;;13.60;9.45;;;;;;;15.39;100.00;95812.47;5042688;28;20400;-84
2021/07/17 03:33:29;;;;;;;12.70;9.70;;;;;;;15.48;100.00;95802.75;5039164;28;20098;-85
2021/07/17 03:35:57;;;;;;;12.70;9.40;;;;;;;15.41;100.00;95800.50;5037733;28;20449;-84
2021/07/17 03:38:23;;;;;;;12.00;8.70;;;;;;;15.30;100.00;95815.03;5032299;28;20111;-84
2021/07/17 03:40:49;;;;;;;13.05;9.82;;;;;;;15.14;100.00;95821.66;5046175;28;20037;-85
2021/07/17 03:43:14;;;;;;;11.73;9.35;;;;;;;15.01;100.00;95816.03;5033502;28;20067;-85
2021/07/17 03:45:40;;;;;;;12.82;10.10;;;;;;;15.08;100.00;95826.25;5032260;28;20050;-85
2021/07/17 03:48:06;;;;;;;13.88;10.18;;;;;;;15.06;100.00;95842.44;5032760;28;20411;-85
2021/07/17 03:50:32;;;;;;;13.18;10.98;;;;;;;15.15;100.00;95839.13;5046650;28;20032;-85
2021/07/17 03:52:57;;;;;;;14.13;10.77;;;;;;;15.30;100.00;95828.28;5047812;28;20039;-85
2021/07/17 03:55:23;;;;;;;14.93;10.75;;;;;;;15.39;100.00;95829.16;5030543;28;20040;-85
2021/07/17 03:57:48;;;;;;;15.15;10.85;;;;;;;15.34;100.00;95842.53;5030959;28;20046;-85
2021/07/17 04:00:14;;;;;;;15.18;11.80;;;;;;;15.32;100.00;95834.06;5038939;28;20041;-85
2021/07/17 04:02:44;;;;;;;14.73;10.93;;;;;;;15.32;100.00;95831.41;5037991;28;20415;-85
2021/07/17 04:05:12;;;;;;;12.73;10.40;;;;;;;15.47;100.00;95834.88;5043863;28;20115;-85
2021/07/17 04:07:38;;;;;;;14.45;11.35;;;;;;;15.44;100.00;95840.78;5048400;28;20107;-84
2021/07/17 04:10:05;;;;;;;16.67;11.85;;;;;;;15.40;100.00;95849.31;5037665;28;20041;-85
2021/07/17 04:12:32;;;;;;;16.50;11.45;;;;;;;15.44;100.00;95852.16;5030752;28;20057;-85
2021/07/17 04:14:58;;;;;;;16.05;11.18;;;;;;;15.54;100.00;95857.31;5040752;28;20090;-85
2021/07/17 04:17:23;;;;;;;13.80;11.05;;;;;;;15.53;100.00;95860.22;5049687;28;20088;-85
2021/07/17 04:19:50;;;;;;;13.65;11.40;;;;;;;15.52;100.00;95858.69;5040840;28;20107;-85
2021/07/17 04:22:15;;;;;;;15.63;10.90;;;;;;;15.58;100.00;95849.53;5045344;28;20037;-85
2021/07/17 04:24:41;;;;;;;15.20;11.85;;;;;;;15.54;100.00;95851.19;5037186;28;20064;-84
2021/07/17 04:27:07;;;;;;;16.60;11.85;;;;;;;15.76;100.00;95855.88;5049792;28;20422;-85
2021/07/17 04:29:33;;;;;;;14.50;11.90;;;;;;;15.59;100.00;95853.78;5034273;28;20099;-85
2021/07/17 04:31:58;;;;;;;18.52;11.95;;;;;;;15.66;100.00;95854.19;5036720;28;20050;-85
2021/07/17 04:34:24;;;;;;;17.42;11.85;;;;;;;15.59;100.00;95849.25;5048495;28;20037;-85
2021/07/17 04:36:50;;;;;;;15.55;12.32;;;;;;;15.70;100.00;95851.72;5033907;28;20037;-85
2021/07/17 04:39:16;;;;;;;15.23;12.88;;;;;;;15.67;100.00;95845.13;5053048;28;20033;-86
2021/07/17 04:41:41;;;;;;;17.52;12.13;;;;;;;15.75;100.00;95857.72;5048191;28;20507;-85
2021/07/17 04:44:07;;;;;;;18.50;11.73;;;;;;;15.69;100.00;95858.91;5039980;28;20051;-85
2021/07/17 04:46:32;;;;;;;17.38;12.23;;;;;;;15.59;100.00;95848.47;5054303;28;20068;-87
2021/07/17 04:48:58;;;;;;;17.25;13.50;;;;;;;15.65;100.00;95849.16;5042815;28;20052;-85
2021/07/17 04:51:24;;;;;;;18.65;13.15;;;;;;;15.67;100.00;95847.78;5053550;28;20418;-85
2021/07/17 04:53:50;;;;;;;18.88;14.38;;;;;;;15.72;100.00;95850.34;5047527;28;20086;-85
2021/07/17 04:56:15;;;;;;;19.45;14.90;;;;;;;15.80;100.00;95848.13;5044645;28;20045;-85
2021/07/17 04:58:41;;;;;;;24.63;16.13;;;;;;;15.84;100.00;95843.81;5034715;28;20041;-85
2021/07/17 05:01:07;;;;;;;22.38;15.75;;;;;;;15.81;100.00;95831.13;5047849;28;20149;-85
2021/07/17 05:03:32;;;;;;;26.15;16.88;;;;;;;15.86;100.00;95823.03;5054660;28;20403;-85
2021/07/17 05:05:58;;;;;;;23.85;16.20;;;;;;;15.90;100.00;95818.72;5036133;28;20042;-87
2021/07/17 05:08:23;;;;;;;24.35;16.98;;;;;;;15.98;100.00;95839.28;5033209;28;20048;-86
2021/07/17 05:10:49;;;;;;;22.88;16.55;;;;;;;15.92;100.00;95832.50;5050666;28;20095;-86
2021/07/17 05:13:18;;;;;;;26.95;17.08;;;;;;;16.02;100.00;95837.59;5058561;28;20036;-85
2021/07/17 05:15:44;;;;;;;27.35;17.55;;;;;;;16.02;100.00;95831.50;5034648;28;20539;-87
2021/07/17 05:18:12;;;;;;;31.52;18.30;;;;;;;16.22;100.00;95817.03;5039811;28;20045;-86
2021/07/17 05:20:42;;;;;;;24.77;17.63;;;;;;;16.36;100.00;95825.75;5038907;28;20033;-85
2021/07/17 05:23:09;;;;;;;29.88;17.92;;;;;;;16.32;100.00;95822.13;5048760;28;20069;-85
2021/07/17 05:25:34;;;;;;;30.60;19.05;;;;;;;16.13;100.00;95818.81;5045701;28;20491;-85
2021/07/17 05:28:00;;;;;;;30.98;19.15;;;;;;;16.17;100.00;95835.72;5042197;28;20047;-85
2021/07/17 05:30:25;;;;;;;34.15;20.40;;;;;;;16.15;100.00;95835.22;5041154;28;20458;-85
2021/07/17 05:32:51;;;;;;;33.53;21.42;;;;;;;16.16;100.00;95828.84;5048688;28;20041;-85
2021/07/17 05:35:17;;;;;;;36.78;22.63;;;;;;;16.24;100.00;95830.81;5070401;28;20098;-86
2021/07/17 05:37:42;;;;;;;33.65;21.50;;;;;;;16.17;100.00;95836.50;5042022;28;20044;-86
2021/07/17 05:40:09;;;;;;;44.50;24.35;;;;;;;16.23;100.00;95842.50;5047829;28;20048;-85
2021/07/17 05:42:34;;;;;;;39.80;22.38;;;;;;;16.26;100.00;95844.56;5044377;28;20033;-85
2021/07/17 05:45:00;;;;;;;44.90;24.58;;;;;;;16.20;100.00;95840.44;5055983;28;20048;-85
2021/07/17 05:47:26;;;;;;;47.00;26.58;;;;;;;16.30;100.00;95856.16;5034837;28;20040;-85
2021/07/17 05:49:52;;;;;;;46.97;26.83;;;;;;;16.33;100.00;95855.56;5037927;28;20112;-85
2021/07/17 05:52:18;;;;;;;43.63;26.23;;;;;;;16.37;100.00;95848.56;5052019;28;20462;-85
2021/07/17 05:54:43;;;;;;;44.50;25.70;;;;;;;16.41;100.00;95846.91;5052563;28;20487;-86
2021/07/17 05:57:09;;;;;;;46.85;26.42;;;;;;;16.40;100.00;95849.84;5041172;28;20086;-85
2021/07/17 05:59:36;;;;;;;47.45;27.77;;;;;;;16.60;100.00;95848.63;5031994;28;20083;-86
2021/07/17 06:02:05;;;;;;;47.38;27.75;;;;;;;16.47;100.00;95836.19;5033262;28;20427;-86
2021/07/17 06:04:31;;;;;;;51.25;28.83;;;;;;;16.54;100.00;95845.31;5033770;28;20046;-86
2021/07/17 06:06:57;;;;;;;45.75;27.75;;;;;;;16.73;100.00;95847.03;5037178;28;20121;-85
2021/07/17 06:09:23;;;;;;;52.90;28.63;;;;;;;16.58;100.00;95840.19;5043068;28;20041;-85
2021/07/17 06:11:48;;;;;;;50.50;29.02;;;;;;;16.66;100.00;95836.78;5041506;28;20099;-85
2021/07/17 06:14:14;;;;;;;50.72;29.10;;;;;;;16.69;100.00;95836.19;5032800;28;20061;-85
2021/07/17 06:16:39;;;;;;;46.30;27.83;;;;;;;16.56;100.00;95837.03;5050694;28;20520;-85
2021/07/17 06:19:05;;;;;;;55.85;29.77;;;;;;;16.59;100.00;95847.06;5049287;28;20040;-86
2021/07/17 06:21:31;;;;;;;47.80;28.83;;;;;;;16.67;100.00;95858.88;5039724;28;20115;-85
2021/07/17 06:23:57;;;;;;;55.60;28.52;;;;;;;16.62;100.00;95851.75;5056121;28;20055;-85
2021/07/17 06:26:23;;;;;;;50.40;28.70;;;;;;;16.75;100.00;95869.56;5047352;28;20037;-85
2021/07/17 06:28:48;;;;;;;59.03;29.50;;;;;;;16.72;100.00;95851.56;5031760;28;20068;-84
2021/07/17 06:31:16;;;;;;;56.63;30.40;;;;;;;16.64;100.00;95860.25;5032735;28;20144;-84
2021/07/17 06:33:42;;;;;;;49.47;28.58;;;;;;;16.70;100.00;95864.34;5049883;28;20041;-85
2021/07/17 06:36:08;;;;;;;55.80;30.80;;;;;;;16.66;100.00;95863.38;5041175;28;20610;-85
2021/07/17 06:38:34;;;;;;;52.65;29.30;;;;;;;16.63;100.00;95861.31;5054796;28;20089;-86
2021/07/17 06:41:01;;;;;;;55.40;30.58;;;;;;;16.67;100.00;95861.53;5053518;28;20102;-85
2021/07/17 06:43:27;;;;;;;49.67;29.17;;;;;;;16.71;100.00;95881.88;5057365;28;20123;-85
2021/07/17 06:45:52;;;;;;;52.00;29.15;;;;;;;16.70;100.00;95864.34;5055521;28;20425;-84
2021/07/17 06:48:18;;;;;;;51.10;29.63;;;;;;;16.79;100.00;95867.88;5040970;28;20041;-85
2021/07/17 06:50:43;;;;;;;51.13;29.63;;;;;;;16.71;100.00;95876.56;5043396;28;20040;-84
2021/07/17 06:53:09;;;;;;;51.40;29.75;;;;;;;16.75;100.00;95872.22;5039047;28;20037;-82
2021/07/17 06:55:35;;;;;;;56.17;30.75;;;;;;;16.79;100.00;95873.19;5042207;28;20037;-83
2021/07/17 06:58:00;;;;;;;53.85;31.85;;;;;;;16.77;100.00;95870.03;5042860;28;20037;-82
2021/07/17 07:00:26;;;;;;;54.85;31.25;;;;;;;16.74;100.00;95867.97;5048862;28;20041;-83
2021/07/17 07:02:51;;;;;;;51.38;28.80;;;;;;;16.90;100.00;95883.63;5030106;28;20041;-80
2021/07/17 07:05:17;;;;;;;53.00;30.17;;;;;;;16.83;100.00;95883.22;5056713;28;20041;-84
2021/07/17 07:07:43;;;;;;;57.30;30.27;;;;;;;16.79;100.00;95891.81;5041741;28;20415;-84
2021/07/17 07:10:09;;;;;;;56.15;29.88;;;;;;;16.82;100.00;95886.97;5034771;28;20040;-80
2021/07/17 07:12:39;;;;;;;52.50;29.95;;;;;;;16.77;100.00;95885.97;5046468;28;20049;-83
2021/07/17 07:15:07;;;;;;;57.17;30.58;;;;;;;16.82;100.00;95894.94;5047870;28;20033;-81
2021/07/17 07:17:32;;;;;;;60.38;30.60;;;;;;;16.75;100.00;95892.69;5041857;28;20094;-82
2021/07/17 07:19:58;;;;;;;53.85;30.83;;;;;;;16.80;100.00;95898.66;5058148;28;20052;-80
2021/07/17 07:22:23;;;;;;;53.40;29.85;;;;;;;16.83;100.00;95899.16;5042793;28;20179;-79
2021/07/17 07:24:49;;;;;;;55.28;30.85;;;;;;;16.78;100.00;95890.22;5049287;28;20051;-79
2021/07/17 07:27:14;;;;;;;53.67;29.75;;;;;;;16.82;100.00;95892.28;5051255;28;20052;-81
2021/07/17 07:29:40;;;;;;;57.95;29.02;;;;;;;16.82;100.00;95897.59;5052485;28;20422;-81
2021/07/17 07:32:05;;;;;;;57.90;30.75;;;;;;;16.73;100.00;95895.63;5050632;28;20466;-83
2021/07/17 07:34:31;;;;;;;55.10;29.42;;;;;;;16.77;100.00;95896.59;5050741;28;20533;-80
2021/07/17 07:36:56;;;;;;;55.35;29.55;;;;;;;16.76;100.00;95894.25;5046683;28;20396;-78
2021/07/17 07:39:22;;;;;;;60.78;31.15;;;;;;;16.78;100.00;95898.19;5053433;28;20037;-79
2021/07/17 07:41:47;;;;;;;55.72;30.70;;;;;;;16.79;100.00;95897.13;5044194;28;20042;-78
2021/07/17 07:44:13;;;;;;;56.08;31.02;;;;;;;16.83;100.00;95893.84;5044745;28;20462;-78
2021/07/17 07:46:39;;;;;;;61.60;31.25;;;;;;;16.82;100.00;95898.38;5036123;28;20041;-78
2021/07/17 07:49:05;;;;;;;58.13;31.23;;;;;;;16.87;100.00;95897.50;5035022;28;20037;-78
2021/07/17 07:51:31;;;;;;;65.53;31.83;;;;;;;16.94;100.00;95900.56;5047953;28;20053;-79
2021/07/17 07:53:57;;;;;;;58.40;30.35;;;;;;;16.98;100.00;95896.19;5051029;28;20048;-80
2021/07/17 07:56:23;;;;;;;56.00;30.77;;;;;;;16.90;100.00;95894.25;5053663;28;20576;-80
2021/07/17 07:58:48;;;;;;;57.88;30.48;;;;;;;17.00;100.00;95894.03;5053321;28;20499;-81
2021/07/17 08:01:14;;;;;;;56.58;30.30;;;;;;;16.98;100.00;95896.19;5048569;28;20033;-80
2021/07/17 08:03:39;;;;;;;54.17;29.73;;;;;;;16.98;100.00;95901.50;5050987;28;20072;-79
2021/07/17 08:06:05;;;;;;;50.15;29.10;;;;;;;16.92;100.00;95902.72;5062177;28;20049;-79
2021/07/17 08:08:31;;;;;;;58.00;28.70;;;;;;;16.96;100.00;95899.13;5051051;28;20098;-80
2021/07/17 08:10:57;;;;;;;53.03;28.48;;;;;;;17.01;100.00;95894.78;5051008;28;20063;-80
2021/07/17 08:13:22;;;;;;;52.38;28.17;;;;;;;17.01;100.00;95895.59;5049199;28;20040;-79
2021/07/17 08:15:50;;;;;;;53.58;28.83;;;;;;;16.98;100.00;95896.19;5062462;28;20044;-79
2021/07/17 08:18:15;;;;;;;50.55;27.95;;;;;;;17.09;100.00;95902.06;5032721;28;20049;-79
2021/07/17 08:20:41;;;;;;;49.17;27.67;;;;;;;17.05;100.00;95907.22;5043931;28;20039;-80
2021/07/17 08:23:07;;;;;;;51.58;29.40;;;;;;;17.04;100.00;95896.84;5064660;28;20044;-81
2021/07/17 08:25:33;;;;;;;51.30;26.58;;;;;;;17.21;99.68;95904.97;5073280;28;20041;-80
2021/07/17 08:27:58;;;;;;;52.60;28.70;;;;;;;17.13;99.69;95903.81;5057065;28;20045;-81
2021/07/17 08:30:24;;;;;;;50.80;26.80;;;;;;;17.23;100.00;95907.34;5048089;28;20059;-82
2021/07/17 08:32:51;;;;;;;48.17;27.30;;;;;;;17.17;99.72;95908.53;5040577;28;20682;-84
2021/07/17 08:35:17;;;;;;;52.38;26.42;;;;;;;17.11;99.31;95906.00;5040289;28;20044;-81
2021/07/17 08:37:42;;;;;;;48.72;26.63;;;;;;;17.07;100.00;95899.72;5038545;28;20465;-82
2021/07/17 08:40:08;;;;;;;50.03;27.65;;;;;;;17.06;99.94;95898.13;5040822;28;20045;-80
2021/07/17 08:42:43;;;;;;;50.90;26.95;;;;;;;17.18;100.00;95904.78;5035274;28;20103;-82
2021/07/17 08:45:09;;;;;;;50.55;27.42;;;;;;;17.22;99.38;95900.44;5045894;28;20037;-83
2021/07/17 08:47:39;;;;;;;49.58;27.40;;;;;;;17.23;99.48;95897.47;5047969;28;20092;-83
2021/07/17 08:50:05;;;;;;;46.58;26.35;;;;;;;17.26;100.00;95893.44;5036293;28;20085;-82
2021/07/17 08:52:33;;;;;;;51.30;27.35;;;;;;;17.07;98.99;95867.81;5047897;28;20055;-82
2021/07/17 08:55:04;;;;;;;44.88;26.63;;;;;;;17.26;99.63;95885.44;5050288;28;20503;-82
2021/07/17 08:57:38;;;;;;;45.50;26.98;;;;;;;17.31;99.40;95885.31;5038973;28;20034;-83
2021/07/17 09:00:08;;;;;;;41.60;25.73;;;;;;;17.41;99.97;95887.75;5033223;28;20491;-82
2021/07/17 09:02:40;;;;;;;41.15;24.80;;;;;;;17.49;98.71;95884.34;5039400;28;20043;-85
2021/07/17 09:05:08;;;;;;;42.97;26.05;;;;;;;17.39;99.41;95889.91;5015204;28;20045;-82
2021/07/17 09:07:35;;;;;;;44.17;26.77;;;;;;;17.47;99.80;95886.53;5031925;28;20042;-81
2021/07/17 09:10:30;;;;;;;45.80;26.45;;;;;;;17.58;98.87;95896.91;5039671;28;20553;-82
2021/07/17 09:13:13;;;;;;;41.97;25.38;;;;;;;17.68;98.72;95886.00;5039354;28;20142;-82
2021/07/17 09:15:48;;;;;;;39.60;25.75;;;;;;;17.74;98.32;95890.13;5045951;28;20044;-82
2021/07/17 09:18:22;;;;;;;45.08;26.77;;;;;;;17.65;98.34;95891.94;5044339;28;20037;-81
2021/07/17 09:21:14;;;;;;;41.83;25.55;;;;;;;17.57;98.13;95884.69;5053992;28;20033;-81
2021/07/17 09:24:01;;;;;;;40.58;25.60;;;;;;;17.51;97.14;95896.56;5042168;28;20041;-82
2021/07/17 09:26:29;;;;;;;44.83;24.85;;;;;;;17.62;98.12;95888.00;5045393;28;20041;-81
2021/07/17 09:29:05;;;;;;;46.50;26.83;;;;;;;17.70;97.79;95883.84;5044915;28;20575;-80
2021/07/17 09:31:34;;;;;;;44.63;25.98;;;;;;;17.77;98.57;95883.38;5038898;28;20029;-82
2021/07/17 09:34:02;;;;;;;42.60;25.60;;;;;;;18.09;97.77;95882.31;5040143;28;20044;-85
2021/07/17 09:36:28;;;;;;;42.22;26.00;;;;;;;18.06;95.58;95880.25;5053511;28;20037;-83
2021/07/17 09:38:53;;;;;;;45.88;25.75;;;;;;;18.14;97.26;95871.50;5055136;28;20044;-83
2021/07/17 09:41:20;;;;;;;41.13;24.20;;;;;;;18.37;94.87;95875.97;5054436;28;20500;-82
2021/07/17 09:44:00;;;;;;;38.40;22.73;;;;;;;18.60;92.72;95865.97;5043695;28;20041;-83
2021/07/17 09:46:28;;;;;;;39.83;23.35;;;;;;;18.79;93.86;95869.13;5052988;28;20046;-82
2021/07/17 09:48:57;;;;;;;38.70;23.42;;;;;;;18.94;91.73;95865.22;5033618;28;20044;-82
2021/07/17 09:51:28;;;;;;;35.90;23.08;;;;;;;19.02;92.69;95872.44;5037416;28;20056;-83
2021/07/17 09:54:01;;;;;;;37.70;22.92;;;;;;;19.21;92.47;95869.44;5052758;28;20037;-80
2021/07/17 09:56:29;;;;;;;33.83;21.15;;;;;;;19.16;90.11;95866.94;5039621;28;20037;-81
2021/07/17 09:58:59;;;;;;;34.00;21.58;;;;;;;19.30;92.24;95871.31;5038874;28;20049;-82
2021/07/17 10:01:47;;;;;;;33.65;21.05;;;;;;;19.17;92.76;95873.84;5040223;28;20131;-81
2021/07/17 10:04:14;;;;;;;32.90;20.83;;;;;;;19.14;91.50;95863.81;5033716;28;20072;-82
2021/07/17 10:07:07;;;;;;;30.70;20.58;;;;;;;19.03;92.81;95862.56;5042293;28;20119;-82
2021/07/17 10:09:34;;;;;;;31.80;20.33;;;;;;;19.07;92.25;95863.50;5043560;28;20037;-83
2021/07/17 10:12:05;;;;;;;31.65;21.13;;;;;;;18.91;92.90;95855.19;5036912;28;20045;-81
2021/07/17 10:14:39;;;;;;;34.05;19.45;;;;;;;19.07;92.80;95852.81;5036364;28;20042;-83
2021/07/17 10:17:09;;;;;;;26.48;18.33;;;;;;;19.07;90.44;95852.81;5033558;28;20052;-82
2021/07/17 10:19:35;;;;;;;29.20;18.55;;;;;;;19.00;92.94;95847.97;5041292;28;20066;-83
2021/07/17 10:22:01;;;;;;;28.08;18.33;;;;;;;18.80;91.23;95844.00;5056390;28;20038;-81
2021/07/17 10:24:28;;;;;;;29.88;18.67;;;;;;;18.97;92.06;95842.47;5041698;28;20049;-81
2021/07/17 10:26:55;;;;;;;29.00;18.70;;;;;;;19.00;93.42;95844.50;5054258;28;20075;-81
2021/07/17 10:29:22;;;;;;;34.95;18.70;;;;;;;19.00;92.78;95852.53;5053936;28;20101;-82
2021/07/17 10:31:50;;;;;;;29.35;18.88;;;;;;;18.71;92.89;95845.91;5046330;28;20087;-81
2021/07/17 10:34:18;;;;;;;30.67;19.90;;;;;;;18.68;93.41;95846.53;5050458;28;20076;-81
2021/07/17 10:37:10;;;;;;;30.27;19.95;;;;;;;18.57;95.21;95850.59;5055293;28;20042;-81
2021/07/17 10:39:41;;;;;;;33.75;19.40;;;;;;;18.31;95.50;95854.00;5043661;28;20463;-82
2021/07/17 10:42:15;;;;;;;30.98;19.45;;;;;;;18.19;95.42;95846.63;5035185;28;20049;-81
2021/07/17 10:44:46;;;;;;;34.15;20.70;;;;;;;18.12;96.23;95841.72;5043028;28;20064;-81
2021/07/17 10:47:13;;;;;;;33.72;19.77;;;;;;;18.16;96.18;95847.25;5053012;28;20049;-80
2021/07/17 10:49:48;;;;;;;28.20;19.75;;;;;;;18.13;96.50;95842.50;5040430;28;20484;-81
2021/07/17 10:52:14;;;;;;;31.40;20.02;;;;;;;18.16;95.82;95848.00;5046720;28;20048;-79
2021/07/17 10:54:40;;;;;;;31.88;19.05;;;;;;;18.18;96.95;95840.50;5038098;28;20041;-83
2021/07/17 10:57:06;;;;;;;34.13;20.50;;;;;;;18.29;96.67;95845.56;5053802;28;20044;-82
2021/07/17 10:59:32;;;;;;;34.10;20.90;;;;;;;18.23;97.55;95841.44;5046677;28;20049;-83
2021/07/17 11:02:02;;;;;;;37.08;21.70;;;;;;;18.25;97.85;95844.59;5034695;28;20490;-83
2021/07/17 11:04:38;;;;;;;31.70;20.42;;;;;;;17.94;96.66;95845.44;5036130;28;20056;-83
2021/07/17 11:07:15;;;;;;;31.17;19.42;;;;;;;18.05;98.45;95841.41;5035383;28;20048;-81
2021/07/17 11:10:11;;;;;;;32.28;20.92;;;;;;;18.08;99.00;95840.78;5047009;28;20037;-80
2021/07/17 11:12:42;;;;;;;35.55;21.50;;;;;;;17.99;98.28;95842.66;5059956;28;20047;-80
2021/07/17 11:15:08;;;;;;;36.78;22.98;;;;;;;18.05;99.21;95841.41;5037244;28;20045;-83